Time;durP1;ratioP1;P1;durP2;ratioP2;P2;SDS_P1;SDS_P2;PMS_P1;PMS_P2;Temp;Humidity;BMP_temperature;BMP_pressure;BME280_temperature;BME280_humidity;BME280_pressure;Samples;Min_cycle;Max_cycle;Signal;HPM_P1;HPM_P2
2021/03/12 06:09:38;;;;;;;11.93;4.20;;;;;;;3.62;84.71;99669.53;123684;1102;64908;-79
2021/03/12 06:12:05;;;;;;;14.33;5.53;;;;;;;3.63;83.47;99680.84;123526;1102;64944;-75
2021/03/12 06:14:51;;;;;;;9.40;2.67;;;;;;;3.63;83.08;99681.69;123466;1104;64933;-82
2021/03/12 06:17:47;;;;;;;25.10;6.97;;;;;;;3.65;83.07;99699.86;123474;1106;66112;-78
2021/03/12 06:20:18;;;;;;;7.23;3.07;;;;;;;3.67;83.04;99703.97;123508;1102;65004;-78
2021/03/12 06:22:51;;;;;;;16.05;5.05;;;;;;;3.74;82.76;99698.11;123547;1103;64947;-79
2021/03/12 06:25:23;;;;;;;17.43;5.23;;;;;;;3.77;82.71;99705.69;123484;1105;64987;-77
2021/03/12 06:27:54;;;;;;;25.10;7.55;;;;;;;3.80;82.10;99700.92;123639;1105;64907;-77
2021/03/12 06:30:23;;;;;;;19.10;6.93;;;;;;;3.84;81.73;99711.95;123516;1102;65354;-79
2021/03/12 06:32:54;;;;;;;26.47;8.23;;;;;;;3.86;81.87;99710.80;123568;1104;64914;-80
2021/03/12 06:35:23;;;;;;;20.27;7.80;;;;;;;3.91;80.94;99715.61;123533;1105;64946;-77
2021/03/12 06:37:50;;;;;;;25.40;7.33;;;;;;;3.95;81.41;99716.09;123647;1105;64889;-77
2021/03/12 06:40:26;;;;;;;16.70;4.77;;;;;;;3.99;80.62;99723.50;123513;1106;64916;-79
2021/03/12 06:43:02;;;;;;;27.50;7.73;;;;;;;4.05;79.69;99722.88;123450;1105;65899;-77
2021/03/12 06:45:29;;;;;;;31.23;8.93;;;;;;;4.11;79.38;99726.69;123375;1105;64915;-77
2021/03/12 06:48:35;;;;;;;26.50;8.03;;;;;;;4.16;80.07;99740.15;123452;1104;64873;-77
2021/03/12 06:51:14;;;;;;;7.90;3.85;;;;;;;4.23;78.85;99735.09;123498;1105;64914;-76
2021/03/12 06:53:45;;;;;;;22.07;7.13;;;;;;;4.33;78.76;99764.67;123421;1105;65606;-75
2021/03/12 06:56:14;;;;;;;12.57;4.53;;;;;;;4.42;78.90;99748.00;123439;1105;64976;-79
2021/03/12 06:59:04;;;;;;;22.70;8.50;;;;;;;4.47;79.64;99764.09;123449;1104;65022;-82
2021/03/12 07:01:30;;;;;;;17.83;6.90;;;;;;;4.57;79.62;99763.13;123464;1105;64831;-79
2021/03/12 07:04:12;;;;;;;17.87;6.03;;;;;;;4.65;79.48;99797.30;123470;1104;66108;-81
2021/03/12 07:06:51;;;;;;;27.30;6.83;;;;;;;4.77;78.72;99769.77;123590;1102;65034;-79
2021/03/12 07:09:17;;;;;;;9.80;4.30;;;;;;;4.84;78.03;99772.57;123465;1104;65711;-83
2021/03/12 07:11:44;;;;;;;26.77;7.50;;;;;;;4.88;78.01;99782.59;123479;1105;64974;-82
2021/03/12 07:14:10;;;;;;;27.83;10.27;;;;;;;4.96;78.31;99783.62;123468;1105;64961;-81
2021/03/12 07:16:55;;;;;;;27.50;7.35;;;;;;;4.99;77.72;99781.47;123458;1103;64911;-80
2021/03/12 07:19:22;;;;;;;14.63;6.00;;;;;;;5.00;77.71;99785.76;123476;1105;64943;-81
2021/03/12 07:21:50;;;;;;;29.90;7.10;;;;;;;5.06;78.44;99795.63;123504;1105;64976;-80
2021/03/12 07:24:24;;;;;;;22.67;6.77;;;;;;;5.06;77.46;99805.33;123582;1105;65208;-82
2021/03/12 07:26:58;;;;;;;15.13;5.57;;;;;;;5.09;77.57;99799.73;123491;1105;64908;-82
2021/03/12 07:29:28;;;;;;;23.23;9.37;;;;;;;5.13;76.86;99790.55;123473;1105;65365;-81
2021/03/12 07:31:57;;;;;;;29.97;11.90;;;;;;;5.18;75.37;99809.27;123493;1105;64921;-81
2021/03/12 07:34:32;;;;;;;15.13;6.40;;;;;;;5.28;75.86;99801.25;123515;1105;65035;-83
2021/03/12 07:36:59;;;;;;;9.77;4.27;;;;;;;5.33;75.80;99813.91;123708;1104;65023;-83
2021/03/12 07:39:40;;;;;;;22.13;8.23;;;;;;;5.33;75.33;99827.05;123519;1106;64933;-84
2021/03/12 07:42:09;;;;;;;21.87;8.53;;;;;;;5.37;76.06;99802.08;123528;1105;64998;-81
2021/03/12 07:44:45;;;;;;;30.67;10.90;;;;;;;5.41;75.61;99806.84;123531;1103;64889;-81
2021/03/12 07:47:26;;;;;;;12.53;4.50;;;;;;;5.44;74.38;99824.09;123510;1102;64956;-81
2021/03/12 07:49:53;;;;;;;13.87;4.63;;;;;;;5.51;74.63;99815.41;123516;1102;65225;-83
2021/03/12 07:52:47;;;;;;;16.10;6.37;;;;;;;5.60;74.85;99815.41;123485;1105;64885;-82
2021/03/12 07:55:33;;;;;;;29.67;10.10;;;;;;;5.66;73.34;99812.94;123539;1105;64838;-83
2021/03/12 07:58:00;;;;;;;18.50;8.33;;;;;;;5.71;72.66;99834.30;123487;1105;64860;-82
2021/03/12 08:00:26;;;;;;;33.73;12.90;;;;;;;5.76;72.62;99835.63;123471;1105;64966;-84
2021/03/12 08:02:53;;;;;;;22.30;7.67;;;;;;;5.83;72.18;99820.84;123426;1105;65017;-84
2021/03/12 08:05:34;;;;;;;37.37;8.50;;;;;;;5.91;71.70;99858.50;123495;1105;64895;-85
2021/03/12 08:08:01;;;;;;;18.43;8.00;;;;;;;5.99;71.71;99828.73;123555;1105;65220;-81
2021/03/12 08:10:28;;;;;;;14.93;6.93;;;;;;;5.96;71.53;99818.55;123522;1105;65030;-82
2021/03/12 08:12:55;;;;;;;27.57;10.27;;;;;;;5.96;71.65;99834.34;123637;1106;64930;-85
2021/03/12 08:15:22;;;;;;;21.83;7.93;;;;;;;6.02;70.69;99844.20;123522;1105;66064;-81
2021/03/12 08:17:57;;;;;;;10.43;4.77;;;;;;;6.03;70.42;99835.30;123538;1105;64889;-80
2021/03/12 08:20:51;;;;;;;19.80;8.47;;;;;;;6.05;70.48;99853.58;123459;1105;64886;-79
2021/03/12 08:23:31;;;;;;;11.10;3.90;;;;;;;6.08;68.94;99856.71;123466;1105;64902;-80
2021/03/12 08:25:57;;;;;;;17.50;6.13;;;;;;;6.10;68.52;99849.47;123426;1105;64940;-83
2021/03/12 08:28:25;;;;;;;8.33;3.63;;;;;;;6.08;68.44;99859.34;123440;1105;64968;-83
2021/03/12 08:30:58;;;;;;;12.03;5.57;;;;;;;6.07;69.01;99862.95;123510;1106;64886;-83
2021/03/12 08:33:33;;;;;;;25.23;8.17;;;;;;;6.11;69.00;99856.36;123527;1105;64995;-82
2021/03/12 08:36:00;;;;;;;8.63;3.60;;;;;;;6.10;67.33;99872.35;123533;1105;64914;-82
2021/03/12 08:38:26;;;;;;;12.13;4.80;;;;;;;6.07;67.87;99852.42;123518;1105;64882;-82
2021/03/12 08:41:01;;;;;;;26.17;8.10;;;;;;;6.12;68.28;99857.21;123490;1102;65045;-85
2021/03/12 08:43:29;;;;;;;23.43;8.33;;;;;;;6.21;68.71;99873.82;123620;1105;64969;-83
2021/03/12 08:46:00;;;;;;;17.20;7.13;;;;;;;6.26;66.56;99872.31;123520;1105;64969;-83
2021/03/12 08:48:31;;;;;;;26.25;10.80;;;;;;;6.27;66.19;99891.59;123598;1102;64841;-83
2021/03/12 08:51:04;;;;;;;13.17;6.23;;;;;;;6.26;67.15;99863.59;123459;1106;64924;-82
2021/03/12 08:53:45;;;;;;;12.90;5.17;;;;;;;6.25;66.12;99862.78;123496;1102;65042;-81
2021/03/12 08:56:12;;;;;;;22.83;7.17;;;;;;;6.38;67.34;99870.16;123491;1102;64886;-83
2021/03/12 08:58:42;;;;;;;16.70;6.03;;;;;;;6.46;66.01;99867.52;123451;1105;64841;-81
2021/03/12 09:01:11;;;;;;;16.65;6.92;;;;;;;6.53;64.99;99875.56;123440;1105;64860;-82
2021/03/12 09:03:37;;;;;;;21.70;10.37;;;;;;;6.61;64.83;99874.70;123587;1102;64927;-82
2021/03/12 09:06:10;;;;;;;22.40;9.77;;;;;;;6.73;65.00;99865.44;123491;1105;65020;-83
2021/03/12 09:08:39;;;;;;;17.87;7.70;;;;;;;6.88;64.87;99887.45;123537;1105;64892;-82
2021/03/12 09:11:09;;;;;;;22.55;11.60;;;;;;;7.02;64.71;99856.92;123399;1105;64992;-84
2021/03/12 09:13:41;;;;;;;28.60;11.43;;;;;;;7.12;63.22;99869.91;123472;1105;64875;-83
2021/03/12 09:16:16;;;;;;;17.03;5.77;;;;;;;7.14;61.81;99886.38;123392;1105;64911;-82
2021/03/12 09:18:43;;;;;;;18.40;7.03;;;;;;;7.15;61.77;99872.19;123541;1105;65048;-83
2021/03/12 09:21:15;;;;;;;16.83;7.63;;;;;;;7.14;60.63;99860.82;123597;1101;64933;-83
2021/03/12 09:23:43;;;;;;;16.83;5.93;;;;;;;7.10;60.59;99885.08;123436;1105;64994;-82
2021/03/12 09:26:18;;;;;;;9.13;3.93;;;;;;;7.05;61.18;99861.84;123854;1102;64883;-86
2021/03/12 09:28:46;;;;;;;24.00;8.90;;;;;;;7.13;60.59;99858.35;123507;1105;64914;-82
2021/03/12 09:31:14;;;;;;;23.47;10.90;;;;;;;7.24;62.49;99860.59;123554;1104;64981;-83
2021/03/12 09:33:45;;;;;;;26.27;10.80;;;;;;;7.38;61.51;99853.76;123631;1105;64947;-84
2021/03/12 09:36:32;;;;;;;12.90;5.00;;;;;;;7.53;61.32;99875.75;123498;1103;65036;-82
2021/03/12 09:39:21;;;;;;;25.63;11.10;;;;;;;7.68;60.18;99873.17;123561;1105;65023;-82
2021/03/12 09:41:54;;;;;;;14.40;7.53;;;;;;;7.67;58.37;99884.75;123526;1105;65712;-83
2021/03/12 09:44:22;;;;;;;13.17;7.80;;;;;;;7.69;58.88;99890.67;123404;1104;65075;-82
2021/03/12 09:46:59;;;;;;;10.93;6.10;;;;;;;7.74;58.46;99864.55;123393;1106;64969;-83
2021/03/12 09:49:33;;;;;;;34.37;14.37;;;;;;;7.70;57.97;99863.27;123387;1103;64870;-83
2021/03/12 09:52:08;;;;;;;13.37;6.97;;;;;;;7.66;57.35;99854.05;123505;1102;65683;-82
2021/03/12 09:54:35;;;;;;;13.30;7.47;;;;;;;7.76;58.41;99859.91;123612;1102;64863;-82
2021/03/12 09:57:02;;;;;;;11.87;5.77;;;;;;;7.86;57.43;99866.77;123500;1105;64987;-82
2021/03/12 09:59:31;;;;;;;18.73;9.70;;;;;;;7.99;56.58;99859.08;123500;1105;64997;-82
2021/03/12 10:02:14;;;;;;;23.17;12.00;;;;;;;8.01;57.94;99866.80;123509;1102;64998;-82
2021/03/12 10:04:46;;;;;;;9.53;6.73;;;;;;;8.09;56.51;99859.62;123363;1106;64949;-82
2021/03/12 10:07:38;;;;;;;7.80;5.10;;;;;;;8.02;56.16;99853.43;123556;1102;64975;-81
2021/03/12 10:10:25;;;;;;;20.07;9.23;;;;;;;8.07;57.83;99851.06;123543;1102;64899;-83
2021/03/12 10:12:59;;;;;;;26.63;12.97;;;;;;;8.14;57.52;99853.83;123509;1103;64982;-82
2021/03/12 10:15:39;;;;;;;11.18;6.75;;;;;;;8.04;55.81;99859.36;123539;1102;64898;-82
2021/03/12 10:18:16;;;;;;;27.83;13.80;;;;;;;7.94;56.13;99861.42;123578;1105;65727;-83
2021/03/12 10:20:42;;;;;;;11.93;7.60;;;;;;;8.06;56.61;99849.43;123635;1105;64943;-81
2021/03/12 10:23:10;;;;;;;16.77;9.65;;;;;;;8.17;56.37;99846.34;123751;1102;64988;-82
2021/03/12 10:25:39;;;;;;;9.27;5.63;;;;;;;8.35;55.06;99858.38;123818;1105;64892;-82
2021/03/12 10:28:11;;;;;;;9.53;3.60;;;;;;;8.43;53.69;99845.12;123862;1105;64917;-83
2021/03/12 10:30:43;;;;;;;18.00;8.70;;;;;;;8.50;55.75;99853.14;123820;1105;67074;-82
2021/03/12 10:33:12;;;;;;;14.27;7.47;;;;;;;8.63;53.97;99828.70;123666;1105;64965;-84
2021/03/12 10:35:44;;;;;;;8.07;3.07;;;;;;;8.72;52.95;99864.64;123837;1105;64921;-83
2021/03/12 10:38:28;;;;;;;9.10;4.20;;;;;;;8.68;52.08;99852.79;123464;1102;65230;-83
2021/03/12 10:40:58;;;;;;;4.27;2.97;;;;;;;8.66;50.40;99855.61;123613;1103;64974;-83
2021/03/12 10:43:27;;;;;;;7.73;3.60;;;;;;;8.67;50.17;99874.93;123525;1102;65005;-83
2021/03/12 10:46:00;;;;;;;4.40;2.83;;;;;;;8.70;50.37;99851.59;123485;1104;64968;-83
2021/03/12 10:48:28;;;;;;;7.10;2.37;;;;;;;8.77;50.74;99825.23;123602;1102;64915;-83
2021/03/12 10:51:03;;;;;;;3.70;2.73;;;;;;;8.84;51.15;99828.80;123542;1102;64946;-82
2021/03/12 10:53:54;;;;;;;10.00;3.50;;;;;;;8.97;53.78;99815.73;123535;1105;65009;-83
2021/03/12 10:56:21;;;;;;;8.10;3.30;;;;;;;9.11;49.91;99858.20;123441;1105;65577;-82
2021/03/12 10:58:50;;;;;;;5.93;3.10;;;;;;;9.17;49.25;99831.81;123540;1105;65712;-83
2021/03/12 11:01:23;;;;;;;3.67;2.47;;;;;;;9.11;50.29;99859.01;123630;1105;64982;-83
2021/03/12 11:03:51;;;;;;;9.73;2.83;;;;;;;9.10;48.29;99851.28;123512;1105;64918;-84
2021/03/12 11:06:20;;;;;;;9.73;3.23;;;;;;;9.12;49.40;99828.10;123579;1105;64952;-83
2021/03/12 11:08:47;;;;;;;7.10;2.50;;;;;;;9.17;50.47;99826.52;123455;1103;64952;-81
2021/03/12 11:11:18;;;;;;;7.80;2.43;;;;;;;9.30;49.80;99819.73;123426;1102;64908;-83
2021/03/12 11:13:45;;;;;;;7.57;2.23;;;;;;;9.47;48.68;99837.00;123470;1102;65030;-83
2021/03/12 11:16:11;;;;;;;3.93;2.10;;;;;;;9.33;46.98;99841.36;123541;1105;65710;-84
2021/03/12 11:18:40;;;;;;;5.07;2.00;;;;;;;9.39;47.61;99822.08;124288;1102;64879;-84
2021/03/12 11:21:09;;;;;;;5.35;2.00;;;;;;;9.43;48.18;99811.91;123520;1102;64873;-83
2021/03/12 11:23:36;;;;;;;12.23;4.23;;;;;;;9.39;48.11;99816.78;123525;1105;65002;-83
2021/03/12 11:26:02;;;;;;;5.50;1.90;;;;;;;9.31;48.83;99837.27;123429;1102;64974;-83
2021/03/12 11:28:30;;;;;;;6.20;2.63;;;;;;;9.20;47.81;99812.09;123390;1105;64969;-83
2021/03/12 11:30:58;;;;;;;6.20;2.00;;;;;;;9.24;47.06;99810.70;123512;1105;64886;-83
2021/03/12 11:33:25;;;;;;;4.60;2.23;;;;;;;9.35;48.09;99810.23;123484;1102;64909;-85
2021/03/12 11:35:53;;;;;;;4.10;1.90;;;;;;;9.66;48.97;99830.25;123550;1102;64891;-83
2021/03/12 11:38:29;;;;;;;10.93;2.15;;;;;;;9.72;46.80;99803.02;123482;1105;64841;-83
2021/03/12 11:40:57;;;;;;;7.67;2.07;;;;;;;9.79;45.28;99862.15;123522;1102;64968;-84
2021/03/12 11:43:24;;;;;;;6.77;2.07;;;;;;;9.72;45.83;99834.80;123548;1102;64913;-81
2021/03/12 11:45:51;;;;;;;6.93;1.80;;;;;;;9.63;44.75;99814.77;123533;1102;65346;-82
2021/03/12 11:48:18;;;;;;;4.57;1.60;;;;;;;9.68;44.25;99822.12;123566;1103;64988;-82
2021/03/12 11:50:45;;;;;;;5.70;1.70;;;;;;;9.96;45.00;99819.50;123442;1102;65033;-84
2021/03/12 11:53:11;;;;;;;11.07;3.40;;;;;;;10.12;43.64;99800.67;123551;1105;64992;-81
2021/03/12 11:55:38;;;;;;;4.77;1.87;;;;;;;10.35;44.45;99802.28;123480;1102;64885;-83
2021/03/12 11:58:04;;;;;;;3.33;1.50;;;;;;;10.64;43.85;99797.71;123472;1105;64863;-83
2021/03/12 12:00:30;;;;;;;7.27;2.80;;;;;;;10.81;42.82;99802.47;123478;1105;64931;-83
2021/03/12 12:02:57;;;;;;;5.27;1.70;;;;;;;10.87;41.72;99803.52;123566;1102;65124;-85
2021/03/12 12:05:24;;;;;;;11.47;1.67;;;;;;;11.31;40.09;99780.97;123467;1103;64886;-84
2021/03/12 12:07:50;;;;;;;3.47;1.77;;;;;;;11.70;38.80;99823.71;123498;1102;65001;-84
2021/03/12 12:10:18;;;;;;;2.27;1.10;;;;;;;12.00;39.78;99790.40;123677;1105;64937;-84
2021/03/12 12:12:46;;;;;;;6.27;1.33;;;;;;;12.15;39.62;99795.48;123627;1106;64911;-84
2021/03/12 12:15:16;;;;;;;5.50;1.70;;;;;;;12.22;39.39;99798.97;123573;1102;64905;-83
2021/03/12 12:17:45;;;;;;;5.07;1.23;;;;;;;11.65;38.83;99808.39;123510;1105;64889;-83
2021/03/12 12:20:13;;;;;;;4.43;1.40;;;;;;;11.73;40.71;99784.28;123451;1102;64927;-83
2021/03/12 12:22:40;;;;;;;4.50;1.40;;;;;;;11.37;39.91;99772.20;123525;1103;64889;-81
2021/03/12 12:25:08;;;;;;;3.80;1.60;;;;;;;11.39;41.19;99774.63;123632;1102;64927;-81
2021/03/12 12:27:35;;;;;;;9.07;1.60;;;;;;;11.55;39.89;99781.41;123522;1102;65020;-81
2021/03/12 12:30:03;;;;;;;6.27;1.47;;;;;;;12.14;39.55;99756.65;123410;1105;64966;-83
2021/03/12 12:32:29;;;;;;;2.75;1.20;;;;;;;12.13;37.88;99770.95;123541;1105;64937;-81
2021/03/12 12:34:55;;;;;;;5.00;1.40;;;;;;;11.80;38.61;99763.02;123471;1105;64835;-84
2021/03/12 12:37:23;;;;;;;3.27;1.40;;;;;;;11.56;39.90;99759.12;123542;1102;64911;-84
2021/03/12 12:39:49;;;;;;;4.80;1.80;;;;;;;11.50;41.30;99746.69;123510;1105;66131;-83
2021/03/12 12:42:16;;;;;;;6.67;1.80;;;;;;;12.02;39.86;99766.28;123523;1103;65007;-84
2021/03/12 12:44:42;;;;;;;5.15;2.00;;;;;;;12.99;37.55;99735.21;123641;1106;65485;-84
2021/03/12 12:47:08;;;;;;;6.70;1.53;;;;;;;12.75;37.62;99735.95;123771;1103;64895;-84
2021/03/12 12:49:35;;;;;;;6.93;1.60;;;;;;;12.29;39.25;99735.13;123561;1105;64966;-84
2021/03/12 12:52:03;;;;;;;4.83;2.13;;;;;;;12.05;40.15;99728.66;123588;1105;64969;-86
2021/03/12 12:54:29;;;;;;;6.27;1.50;;;;;;;13.17;37.43;99731.00;123655;1104;65014;-84
2021/03/12 12:56:56;;;;;;;4.30;1.60;;;;;;;13.55;36.33;99727.47;123800;1105;64892;-84
2021/03/12 12:59:24;;;;;;;7.13;1.60;;;;;;;14.70;34.66;99718.04;123680;1105;64894;-82
2021/03/12 13:01:50;;;;;;;6.37;1.67;;;;;;;15.72;32.16;99703.75;123630;1103;64966;-85
2021/03/12 13:04:17;;;;;;;5.27;1.30;;;;;;;15.40;31.91;99710.20;123661;1102;66109;-84
2021/03/12 13:06:43;;;;;;;5.93;1.40;;;;;;;14.28;32.99;99738.23;123648;1105;64965;-84
2021/03/12 13:09:09;;;;;;;6.90;2.00;;;;;;;14.21;33.59;99723.33;123682;1102;64905;-84
2021/03/12 13:11:36;;;;;;;5.50;1.37;;;;;;;15.12;31.74;99694.03;123615;1105;64850;-85
2021/03/12 13:14:02;;;;;;;6.05;1.42;;;;;;;15.64;31.76;99718.23;123974;1102;64958;-86
2021/03/12 13:16:29;;;;;;;4.40;1.13;;;;;;;14.71;32.68;99698.33;124295;1105;64988;-83
2021/03/12 13:18:56;;;;;;;6.00;1.50;;;;;;;13.74;35.01;99689.15;124001;1106;64876;-86
2021/03/12 13:21:38;;;;;;;5.73;1.40;;;;;;;13.24;35.48;99683.84;123487;1102;64883;-85
2021/03/12 13:24:05;;;;;;;9.70;2.00;;;;;;;13.48;36.84;99673.43;123519;1104;64905;-84
2021/03/12 13:26:31;;;;;;;5.62;2.08;;;;;;;13.35;37.48;99669.84;123540;1106;65699;-83
2021/03/12 13:28:57;;;;;;;7.30;1.90;;;;;;;12.89;37.33;99681.63;123673;1102;64966;-84
2021/03/12 13:31:23;;;;;;;6.07;1.23;;;;;;;12.60;38.65;99659.91;123649;1102;64934;-82
2021/03/12 13:33:51;;;;;;;8.63;1.83;;;;;;;13.40;36.54;99664.66;123538;1102;65243;-81
2021/03/12 13:36:18;;;;;;;9.47;1.53;;;;;;;14.03;34.85;99676.95;123496;1105;65006;-82
2021/03/12 13:38:45;;;;;;;5.10;1.40;;;;;;;13.29;36.30;99676.04;123443;1105;64977;-83
2021/03/12 13:41:11;;;;;;;4.00;1.40;;;;;;;13.16;37.57;99694.77;123484;1102;64939;-84
2021/03/12 13:43:41;;;;;;;5.67;1.77;;;;;;;14.02;35.11;99666.50;123530;1105;64885;-82
2021/03/12 13:46:09;;;;;;;8.93;1.90;;;;;;;14.09;35.72;99669.92;123561;1102;64893;-81
2021/03/12 13:48:35;;;;;;;4.60;1.70;;;;;;;13.73;36.53;99649.38;123615;1105;64914;-81
2021/03/12 13:51:05;;;;;;;5.90;1.73;;;;;;;13.37;36.00;99645.66;123543;1102;64937;-81
2021/03/12 13:53:32;;;;;;;7.67;1.20;;;;;;;14.37;35.08;99631.21;123534;1105;64901;-81
2021/03/12 13:55:58;;;;;;;5.87;1.63;;;;;;;14.20;35.32;99650.50;123497;1102;64972;-83
2021/03/12 13:58:24;;;;;;;7.65;1.75;;;;;;;15.18;33.11;99615.64;123537;1105;64896;-81
2021/03/12 14:00:50;;;;;;;3.50;1.55;;;;;;;15.41;32.17;99646.91;123499;1102;64984;-81
2021/03/12 14:03:17;;;;;;;5.72;1.52;;;;;;;15.86;30.59;99652.47;123679;1102;64879;-82
2021/03/12 14:05:43;;;;;;;5.90;1.40;;;;;;;15.37;32.37;99638.53;123376;1105;65094;-81
2021/03/12 14:08:09;;;;;;;7.90;1.57;;;;;;;14.23;33.52;99635.89;123380;1103;65709;-81
2021/03/12 14:10:38;;;;;;;4.00;1.00;;;;;;;13.33;36.30;99629.30;123492;1105;64917;-80
2021/03/12 14:13:05;;;;;;;3.07;1.03;;;;;;;12.69;37.69;99617.89;123425;1105;64917;-81
2021/03/12 14:15:32;;;;;;;4.50;1.43;;;;;;;11.97;38.49;99657.93;123532;1105;64924;-81
2021/03/12 14:17:59;;;;;;;5.67;1.17;;;;;;;11.22;39.39;99622.91;123456;1102;64884;-82
2021/03/12 14:20:29;;;;;;;5.70;1.00;;;;;;;10.79;41.40;99623.30;123426;1102;64936;-83
2021/03/12 14:23:04;;;;;;;3.03;0.90;;;;;;;10.31;42.08;99650.73;123466;1102;64944;-82
2021/03/12 14:25:32;;;;;;;9.37;2.80;;;;;;;9.96;44.53;99634.05;123528;1102;65890;-83
2021/03/12 14:27:59;;;;;;;3.20;1.10;;;;;;;9.73;45.04;99644.92;123542;1102;64908;-81
2021/03/12 14:30:25;;;;;;;6.20;1.70;;;;;;;9.52;45.75;99644.00;123482;1105;64989;-82
2021/03/12 14:32:51;;;;;;;7.03;1.77;;;;;;;9.38;46.82;99637.79;123474;1102;64892;-81
2021/03/12 14:35:19;;;;;;;2.33;0.87;;;;;;;9.28;47.48;99633.84;123437;1105;64915;-82
2021/03/12 14:37:46;;;;;;;7.23;1.37;;;;;;;9.10;47.51;99624.56;123542;1105;64940;-82
2021/03/12 14:40:13;;;;;;;5.90;1.30;;;;;;;9.05;47.72;99612.91;123504;1106;65918;-81
2021/03/12 14:42:42;;;;;;;3.70;0.90;;;;;;;9.00;48.41;99617.97;123543;1102;65010;-80
2021/03/12 14:45:09;;;;;;;5.13;1.10;;;;;;;9.03;48.80;99606.98;123499;1105;64944;-80
2021/03/12 14:47:35;;;;;;;5.63;1.30;;;;;;;9.13;47.92;99602.19;123436;1102;64918;-80
2021/03/12 14:50:05;;;;;;;4.77;1.87;;;;;;;9.44;47.22;99588.56;123510;1105;65362;-80
2021/03/12 14:52:50;;;;;;;5.77;2.20;;;;;;;10.78;44.63;99579.23;123461;1102;64882;-80
2021/03/12 14:55:27;;;;;;;5.53;1.27;;;;;;;11.25;43.27;99577.36;123490;1102;65062;-79
2021/03/12 14:57:53;;;;;;;6.87;1.20;;;;;;;11.10;43.30;99571.47;123502;1105;64940;-82
2021/03/12 15:00:21;;;;;;;4.10;1.20;;;;;;;10.84;42.84;99562.50;123598;1103;64902;-80
2021/03/12 15:02:47;;;;;;;14.37;2.23;;;;;;;10.77;45.03;99561.66;123495;1105;64905;-81
2021/03/12 15:05:14;;;;;;;5.33;1.10;;;;;;;10.60;44.25;99561.25;123437;1105;64921;-81
2021/03/12 15:07:41;;;;;;;3.47;0.80;;;;;;;10.39;44.27;99564.89;123427;1101;64943;-80
2021/03/12 15:10:08;;;;;;;5.35;1.22;;;;;;;10.11;43.80;99560.52;123431;1105;66142;-82
2021/03/12 15:12:34;;;;;;;5.43;1.97;;;;;;;9.93;44.66;99552.33;123477;1105;65073;-80
2021/03/12 15:15:01;;;;;;;4.83;1.10;;;;;;;9.81;44.61;99562.66;123358;1102;64911;-81
2021/03/12 15:17:27;;;;;;;4.45;1.20;;;;;;;9.71;45.09;99541.86;123435;1102;64882;-82
2021/03/12 15:19:53;;;;;;;6.20;1.20;;;;;;;9.61;44.72;99530.81;123411;1105;65036;-81
2021/03/12 15:22:20;;;;;;;4.83;1.00;;;;;;;9.57;44.99;99524.27;123410;1102;64908;-80
2021/03/12 15:24:46;;;;;;;2.43;0.60;;;;;;;9.53;45.82;99534.44;123470;1102;64879;-82
2021/03/12 15:27:13;;;;;;;3.77;0.83;;;;;;;9.50;45.65;99540.14;123460;1101;64883;-82
2021/03/12 15:29:42;;;;;;;2.83;0.77;;;;;;;9.52;45.12;99511.64;123469;1105;66183;-81
2021/03/12 15:32:08;;;;;;;2.80;0.73;;;;;;;9.51;45.94;99531.16;123543;1106;64710;-82
2021/03/12 15:34:36;;;;;;;6.47;0.90;;;;;;;9.46;45.70;99516.91;123604;1102;65711;-83
2021/03/12 15:37:03;;;;;;;1.80;0.80;;;;;;;9.38;45.42;99516.03;123793;1102;64914;-80
2021/03/12 15:39:30;;;;;;;4.03;1.10;;;;;;;9.37;46.19;99505.64;123660;1102;64895;-81
2021/03/12 15:41:58;;;;;;;4.57;0.70;;;;;;;9.33;45.48;99504.42;123503;1102;64988;-81
2021/03/12 15:44:26;;;;;;;3.43;1.03;;;;;;;9.28;46.01;99510.28;123583;1102;64975;-81
2021/03/12 15:46:52;;;;;;;1.70;0.83;;;;;;;9.25;45.74;99502.74;123533;1105;64885;-80
2021/03/12 15:49:20;;;;;;;5.40;1.10;;;;;;;9.22;46.35;99494.37;123621;1106;64902;-81
2021/03/12 15:51:47;;;;;;;4.83;1.00;;;;;;;9.17;45.71;99502.89;123697;1102;64895;-79
2021/03/12 15:54:14;;;;;;;2.97;1.10;;;;;;;9.16;46.30;99480.11;123640;1105;65356;-81
2021/03/12 15:56:42;;;;;;;3.37;1.00;;;;;;;9.14;45.94;99482.13;123491;1105;65049;-79
2021/03/12 15:59:08;;;;;;;3.87;0.80;;;;;;;9.12;45.95;99473.58;123748;1105;65957;-77
2021/03/12 16:01:40;;;;;;;6.47;0.90;;;;;;;9.10;45.96;99472.95;123512;1102;65669;-82
2021/03/12 16:04:08;;;;;;;6.20;0.87;;;;;;;9.08;46.79;99465.20;123482;1105;65594;-83
2021/03/12 16:06:34;;;;;;;7.20;0.70;;;;;;;9.04;46.37;99471.08;123402;1105;64885;-83
2021/03/12 16:09:02;;;;;;;5.13;1.17;;;;;;;9.01;46.69;99477.59;123411;1105;64891;-83
2021/03/12 16:11:28;;;;;;;2.80;1.27;;;;;;;9.00;46.87;99464.55;123435;1105;64963;-84
2021/03/12 16:13:55;;;;;;;4.23;0.60;;;;;;;8.96;47.21;99464.92;123541;1102;64860;-82
2021/03/12 16:16:21;;;;;;;4.67;0.80;;;;;;;8.93;48.03;99454.74;123535;1102;64834;-81
2021/03/12 16:18:48;;;;;;;4.60;0.90;;;;;;;8.90;47.59;99454.30;123547;1102;64992;-80
2021/03/12 16:21:16;;;;;;;1.77;0.60;;;;;;;8.87;47.17;99463.45;123566;1105;64962;-80
2021/03/12 16:23:52;;;;;;;3.77;1.47;;;;;;;8.86;47.39;99456.54;123445;1102;64838;-81
2021/03/12 16:26:18;;;;;;;2.23;1.07;;;;;;;8.87;47.71;99438.84;123485;1105;64987;-79
2021/03/12 16:28:44;;;;;;;3.80;0.80;;;;;;;8.85;47.54;99457.53;123566;1105;65686;-80
2021/03/12 16:31:11;;;;;;;4.73;1.53;;;;;;;8.86;47.69;99443.32;123510;1102;64909;-81
2021/03/12 16:33:37;;;;;;;6.63;1.30;;;;;;;8.86;47.01;99438.03;123410;1105;65059;-81
2021/03/12 16:36:05;;;;;;;4.80;0.90;;;;;;;8.84;47.85;99445.34;123513;1103;64882;-82
2021/03/12 16:38:32;;;;;;;2.33;0.60;;;;;;;8.82;48.05;99431.50;123532;1103;64965;-82
2021/03/12 16:40:58;;;;;;;3.80;1.10;;;;;;;8.78;48.69;99419.67;123572;1105;64896;-81
2021/03/12 16:43:24;;;;;;;2.97;1.03;;;;;;;8.77;47.39;99425.95;123479;1105;65723;-80
2021/03/12 16:45:51;;;;;;;7.10;1.30;;;;;;;8.77;47.50;99418.02;123464;1105;64882;-81
2021/03/12 16:48:17;;;;;;;2.93;1.00;;;;;;;8.78;48.55;99427.61;123454;1105;66080;-81
2021/03/12 16:50:44;;;;;;;4.23;1.40;;;;;;;8.77;48.94;99412.73;123426;1105;65221;-83
2021/03/12 16:53:10;;;;;;;4.47;1.20;;;;;;;8.76;49.08;99416.41;123614;1102;64891;-81
2021/03/12 16:55:38;;;;;;;4.10;1.20;;;;;;;8.74;49.21;99418.42;123466;1103;65317;-80
2021/03/12 16:58:06;;;;;;;5.70;2.40;;;;;;;8.71;48.78;99419.64;123662;1106;64885;-81
2021/03/12 17:00:32;;;;;;;1.80;0.80;;;;;;;8.69;49.05;99402.31;123413;1102;64861;-81
2021/03/12 17:02:59;;;;;;;3.37;1.20;;;;;;;8.66;50.04;99406.16;123411;1105;64965;-80
2021/03/12 17:05:27;;;;;;;4.40;1.40;;;;;;;8.62;49.41;99404.11;123539;1105;64937;-81
2021/03/12 17:07:53;;;;;;;4.70;1.30;;;;;;;8.59;49.11;99401.86;123581;1103;65234;-79
2021/03/12 17:10:20;;;;;;;7.80;1.23;;;;;;;8.57;50.22;99407.34;123511;1102;65058;-79
2021/03/12 17:12:47;;;;;;;5.33;0.80;;;;;;;8.54;50.97;99412.99;123619;1105;65324;-80
2021/03/12 17:15:14;;;;;;;3.63;0.97;;;;;;;8.43;54.98;99447.89;123494;1102;64865;-80
2021/03/12 17:17:41;;;;;;;3.97;0.63;;;;;;;8.19;57.49;99467.58;123456;1102;65474;-81
2021/03/12 17:20:09;;;;;;;10.87;3.50;;;;;;;7.92;60.53;99514.84;123408;1105;64902;-78
2021/03/12 17:22:36;;;;;;;5.10;2.90;;;;;;;7.64;63.51;99491.80;123416;1105;65039;-80
2021/03/12 17:25:04;;;;;;;10.37;3.63;;;;;;;7.38;66.80;99502.85;124033;1105;64941;-81
2021/03/12 17:27:39;;;;;;;13.33;4.10;;;;;;;7.03;68.96;99514.94;123430;1105;64908;-82
2021/03/12 17:30:08;;;;;;;18.67;5.87;;;;;;;6.76;71.68;99504.02;123478;1102;65677;-81
2021/03/12 17:32:34;;;;;;;15.43;5.50;;;;;;;6.51;72.41;99472.61;123551;1105;64992;-82
2021/03/12 17:35:02;;;;;;;11.17;3.80;;;;;;;6.32;73.57;99481.02;123576;1102;65029;-81
2021/03/12 17:37:28;;;;;;;15.30;4.47;;;;;;;6.16;74.52;99465.33;123551;1105;64925;-81
2021/03/12 17:39:54;;;;;;;12.03;2.13;;;;;;;6.04;76.26;99457.86;123451;1102;65728;-81
2021/03/12 17:42:21;;;;;;;13.73;4.47;;;;;;;5.95;76.31;99463.34;123560;1102;64987;-80
2021/03/12 17:44:48;;;;;;;10.10;2.90;;;;;;;5.87;75.88;99451.86;123462;1105;64911;-80
2021/03/12 17:47:14;;;;;;;9.50;2.57;;;;;;;5.83;76.39;99436.59;123478;1103;66152;-80